HPD weather

Park Plaza I Heliport
Cuajimalpa, Distrito Federal, Mexico

Public forecast

Using degrees Celsius for public forecast. Weather courtesy of forecast.io.

METAR (pilot weather report)

Closest report is Licenciado Benito Juarez International Airport, 11.5 nm (21.2 km) ENE. Retrieved 2019/08/17 11:47 UTC (18 minutes ago):

MMMX 171147Z 07005KT 7SM SCT200 15/11 A3032 NOSIG RMK SLP090 57006 964 8/001 HZY DSNT CB S

TAF (pilot weather forecast)

Closest forecast is Licenciado Benito Juarez International Airport, 11.5 nm (21.2 km) ENE. Retrieved 2019/08/17 12:33 UTC (0 seconds ago):

TAF MMMX 171026Z 1712/1818 06005KT 6SM HZ BKN200 TX26/1721Z TN15/1712Z FM171800 12010KT P6SM SCT025 SCT200 TEMPO 1723/1803 5SM TSRA BKN020CB FM180300 03010KT 6SM -RA SCT020CB BKN080 FM180500 13005KT 6SM HZ SCT020 BKN200 FM181800 13010KT P6SM SCT025 BKN200